Indianapolis, Indiana
Traffic Map
Current Weather Conditions
Indianapolis, Indiana
Scattered Clouds
Scattered Clouds
-12°
Feels Like: -16°
Wind Chill: -16° Ceiling: Unl
Heat Index: -12° Visibility: 10mi
Dew Point: -16° Wind: 5mph
Humidity: 73% Direction: 280° (W)
Pressure: 30.13in Gusts: 0mph
Raw Report DataKIND 110554Z 28004KT 10SM FEW025 SCT120 SCT250 M12/M16 A3013 RMK AO2 SLP219 4/001 T11171156 11089 21117 50005
Traffic Incident Summary
Active as of:
Severity:
Category:
InformationThere was an issue retrieving the traffic information for this location. Please try a different location or try again shortly.
Advertisements
Track Severe Weather on mobile